Time;durP1;ratioP1;P1;durP2;ratioP2;P2;SDS_P1;SDS_P2;PMS_P1;PMS_P2;Temp;Humidity;BMP_temperature;BMP_pressure;BME280_temperature;BME280_humidity;BME280_pressure;Samples;Min_cycle;Max_cycle;Signal;HPM_P1;HPM_P2
2022/03/25 00:01:51;;;;;;;46.47;22.23;;;7.20;95.50;;;;;;4243973;27;20496;-89
2022/03/25 00:03:52;;;;;;;44.08;22.52;;;6.40;95.30;;;;;;4232113;27;20052;-89
2022/03/25 00:05:53;;;;;;;41.83;22.02;;;6.80;95.50;;;;;;4241901;27;20040;-89
2022/03/25 00:07:54;;;;;;;40.58;22.20;;;6.50;95.60;;;;;;4226470;28;20039;-88
2022/03/25 00:09:55;;;;;;;42.28;21.98;;;6.70;95.80;;;;;;4230791;27;20058;-88
2022/03/25 00:11:56;;;;;;;42.83;22.30;;;5.60;95.70;;;;;;4241691;27;20455;-89
2022/03/25 00:13:57;;;;;;;43.20;21.67;;;7.20;96.20;;;;;;4233768;27;20046;-88
2022/03/25 00:15:57;;;;;;;40.42;21.58;;;6.60;96.00;;;;;;4218255;28;20553;-88
2022/03/25 00:17:58;;;;;;;35.78;19.92;;;6.50;96.00;;;;;;4244703;27;20043;-89
2022/03/25 00:20:00;;;;;;;37.97;21.80;;;7.10;96.10;;;;;;4243168;27;20568;-88
2022/03/25 00:22:01;;;;;;;37.42;22.30;;;6.10;96.00;;;;;;4213930;28;20055;-88
2022/03/25 00:24:04;;;;;;;38.28;20.67;;;6.00;95.80;;;;;;4231944;27;20034;-89
2022/03/25 00:26:05;;;;;;;33.22;19.00;;;6.00;96.10;;;;;;4234107;27;20564;-87
2022/03/25 00:28:06;;;;;;;37.20;19.15;;;6.90;96.30;;;;;;4246533;27;20039;-87
2022/03/25 00:30:07;;;;;;;39.10;22.15;;;5.90;96.30;;;;;;4245517;27;20406;-88
2022/03/25 00:32:08;;;;;;;35.13;20.05;;;5.90;96.40;;;;;;4238301;27;20039;-88
2022/03/25 00:34:09;;;;;;;36.45;19.95;;;6.10;96.30;;;;;;4234484;27;20057;-87
2022/03/25 00:36:12;;;;;;;39.25;21.40;;;5.80;96.30;;;;;;4246584;27;20042;-88
2022/03/25 00:38:13;;;;;;;39.47;21.15;;;5.70;96.10;;;;;;4217341;28;20156;-88
2022/03/25 00:40:15;;;;;;;36.80;20.77;;;5.70;96.20;;;;;;4244254;27;20118;-89
2022/03/25 00:42:16;;;;;;;36.88;19.65;;;5.70;95.90;;;;;;4242157;27;20039;-88
2022/03/25 00:44:20;;;;;;;38.70;21.00;;;5.80;96.20;;;;;;4232411;27;20043;-87
2022/03/25 00:46:26;;;;;;;44.50;21.80;;;6.20;96.20;;;;;;4232677;27;20511;-88
2022/03/25 00:48:27;;;;;;;38.92;21.27;;;6.30;96.40;;;;;;4243360;27;20534;-87
2022/03/25 00:50:28;;;;;;;38.08;20.33;;;6.30;96.50;;;;;;4215686;28;20047;-88
2022/03/25 00:52:29;;;;;;;37.42;20.55;;;5.50;96.50;;;;;;4231167;27;20047;-87
2022/03/25 00:54:31;;;;;;;38.70;20.73;;;5.60;96.50;;;;;;4242430;27;20091;-87
2022/03/25 00:56:31;;;;;;;37.45;19.75;;;5.50;96.50;;;;;;4237251;27;20406;-88
2022/03/25 00:58:33;;;;;;;40.83;20.42;;;5.50;96.30;;;;;;4226335;28;20087;-87
2022/03/25 01:00:34;;;;;;;37.70;21.05;;;6.20;96.40;;;;;;4244972;27;20055;-88
2022/03/25 01:02:35;;;;;;;35.42;19.95;;;6.40;96.60;;;;;;4233398;27;20430;-87
2022/03/25 01:04:37;;;;;;;33.75;18.23;;;6.00;96.70;;;;;;4245150;27;20039;-88
2022/03/25 01:06:40;;;;;;;39.47;20.55;;;6.20;96.70;;;;;;4214751;28;20063;-87
2022/03/25 01:08:41;;;;;;;37.83;20.38;;;5.30;96.50;;;;;;4237439;27;20053;-89
2022/03/25 01:10:43;;;;;;;35.63;19.85;;;5.20;96.60;;;;;;4244625;27;22994;-88
2022/03/25 01:12:43;;;;;;;35.70;19.85;;;6.00;96.70;;;;;;4246349;27;20066;-87
2022/03/25 01:14:44;;;;;;;33.13;17.75;;;5.20;96.70;;;;;;4237507;27;20112;-88
2022/03/25 01:16:45;;;;;;;35.28;18.67;;;5.20;96.70;;;;;;4233837;27;20395;-89
2022/03/25 01:18:46;;;;;;;32.75;18.15;;;5.50;96.80;;;;;;4246020;28;20043;-87
2022/03/25 01:20:46;;;;;;;37.40;19.77;;;5.90;96.70;;;;;;4242199;27;20047;-88
2022/03/25 01:22:48;;;;;;;33.05;19.00;;;5.10;96.50;;;;;;4243976;27;20087;-87
2022/03/25 01:24:49;;;;;;;34.50;18.38;;;5.10;96.50;;;;;;4259943;27;20057;-88
2022/03/25 01:26:50;;;;;;;38.15;20.10;;;5.20;96.50;;;;;;4255091;27;20080;-88
2022/03/25 01:28:52;;;;;;;36.42;20.65;;;5.00;96.40;;;;;;4263889;27;20103;-88
2022/03/25 01:30:53;;;;;;;37.90;19.95;;;;;;;;;;4232019;28;20040;-88
2022/03/25 01:32:55;;;;;;;39.20;18.58;;;5.00;96.10;;;;;;4253430;27;20441;-87
2022/03/25 01:34:55;;;;;;;32.22;17.85;;;5.00;96.50;;;;;;4226675;28;20083;-88
2022/03/25 01:36:57;;;;;;;29.20;17.55;;;5.90;96.70;;;;;;4245562;28;20065;-87
2022/03/25 01:38:58;;;;;;;34.50;17.80;;;6.10;96.80;;;;;;4240106;28;20113;-87
2022/03/25 01:41:00;;;;;;;32.10;17.67;;;5.50;96.70;;;;;;4234089;28;20043;-88
2022/03/25 01:43:00;;;;;;;31.02;17.90;;;4.80;96.40;;;;;;4243036;28;20098;-87
2022/03/25 01:45:05;;;;;;;33.53;18.60;;;5.50;97.00;;;;;;4251194;27;20035;-87
2022/03/25 01:47:08;;;;;;;34.30;19.17;;;4.80;96.70;;;;;;4259784;27;20035;-87
2022/03/25 01:49:09;;;;;;;37.40;19.30;;;4.80;96.60;;;;;;4260941;27;20188;-87
2022/03/25 01:51:13;;;;;;;35.22;18.85;;;4.80;96.80;;;;;;4235292;28;20046;-86
2022/03/25 01:53:19;;;;;;;36.22;19.30;;;4.70;96.90;;;;;;4236524;28;20039;-88
2022/03/25 01:55:26;;;;;;;33.03;17.88;;;4.70;96.90;;;;;;4234322;28;20039;-87
2022/03/25 01:57:27;;;;;;;33.65;18.17;;;5.60;97.30;;;;;;4219115;28;20396;-88
2022/03/25 01:59:31;;;;;;;33.67;17.70;;;5.40;97.20;;;;;;4251558;27;20042;-88
2022/03/25 02:01:31;;;;;;;34.75;18.92;;;4.70;97.00;;;;;;4228689;28;20043;-88
2022/03/25 02:03:32;;;;;;;34.08;18.40;;;5.30;97.10;;;;;;4244140;28;20534;-88
2022/03/25 02:05:35;;;;;;;34.42;18.50;;;5.70;97.40;;;;;;4238307;28;20044;-88
2022/03/25 02:07:36;;;;;;;33.67;18.30;;;3.80;97.10;;;;;;4235182;28;20039;-87
2022/03/25 02:09:37;;;;;;;40.13;20.10;;;5.20;97.60;;;;;;4249220;27;20039;-88
2022/03/25 02:11:39;;;;;;;36.25;19.38;;;5.60;97.50;;;;;;4240348;28;20097;-88
2022/03/25 02:13:40;;;;;;;42.17;21.13;;;5.50;97.50;;;;;;4219084;28;20051;-88
2022/03/25 02:15:43;;;;;;;42.35;21.17;;;4.40;97.30;;;;;;4239395;27;20055;-88
2022/03/25 02:17:45;;;;;;;34.88;19.08;;;4.70;97.30;;;;;;4238137;27;20134;-89
2022/03/25 02:19:48;;;;;;;40.13;20.85;;;5.00;97.50;;;;;;4239664;27;20089;-89
2022/03/25 02:21:49;;;;;;;38.50;19.88;;;5.20;97.60;;;;;;4219556;28;20059;-89
2022/03/25 02:23:50;;;;;;;41.60;20.58;;;5.00;97.90;;;;;;4237379;27;20043;-88
2022/03/25 02:25:53;;;;;;;38.88;20.00;;;5.30;97.70;;;;;;4220313;28;20051;-88
2022/03/25 02:27:57;;;;;;;39.25;21.02;;;5.20;97.50;;;;;;4237763;27;20050;-89
2022/03/25 02:29:59;;;;;;;42.40;22.40;;;5.50;97.70;;;;;;4263785;27;20121;-89
2022/03/25 02:31:59;;;;;;;42.22;20.92;;;4.40;97.70;;;;;;4245168;27;20566;-89
2022/03/25 02:34:05;;;;;;;43.88;21.70;;;5.10;97.80;;;;;;4254987;27;20039;-89
2022/03/25 02:36:08;;;;;;;41.85;21.88;;;3.90;97.50;;;;;;4254520;27;20406;-89
2022/03/25 02:38:14;;;;;;;44.25;22.55;;;4.90;97.90;;;;;;4219600;28;20042;-89
2022/03/25 02:40:14;;;;;;;42.97;22.52;;;4.90;98.00;;;;;;4247387;27;20835;-89
2022/03/25 02:42:15;;;;;;;42.80;20.48;;;4.30;98.10;;;;;;4254263;27;20039;-88
2022/03/25 02:44:16;;;;;;;38.92;20.52;;;4.20;98.00;;;;;;4255400;27;20039;-88
2022/03/25 02:46:18;;;;;;;38.67;20.67;;;5.10;98.30;;;;;;4260776;27;20051;-88
2022/03/25 02:48:19;;;;;;;42.50;20.92;;;4.20;98.10;;;;;;4254331;27;20031;-89
2022/03/25 02:50:21;;;;;;;37.97;20.27;;;4.90;98.40;;;;;;4254238;27;20030;-87
2022/03/25 02:52:22;;;;;;;39.15;18.48;;;4.90;98.30;;;;;;4254362;27;20510;-88
2022/03/25 02:54:23;;;;;;;38.67;18.88;;;5.00;98.50;;;;;;4254725;27;20071;-87
2022/03/25 02:56:26;;;;;;;39.92;20.15;;;5.30;98.60;;;;;;4255029;27;20072;-89
2022/03/25 02:58:27;;;;;;;40.08;20.35;;;4.20;98.40;;;;;;4219030;28;20407;-88
2022/03/25 03:00:28;;;;;;;37.75;20.13;;;5.00;98.60;;;;;;4254122;27;20070;-88
2022/03/25 03:02:29;;;;;;;37.60;20.40;;;4.70;98.60;;;;;;4240277;27;20046;-88
2022/03/25 03:04:29;;;;;;;38.42;19.00;;;4.20;98.60;;;;;;4229187;28;20051;-89
2022/03/25 03:06:30;;;;;;;38.03;18.98;;;4.30;98.50;;;;;;4235961;27;20408;-88
2022/03/25 03:08:32;;;;;;;41.83;20.83;;;4.40;98.70;;;;;;4256306;27;20494;-88
2022/03/25 03:10:35;;;;;;;34.35;18.05;;;4.00;98.60;;;;;;4256548;27;20048;-88
2022/03/25 03:12:37;;;;;;;37.70;19.80;;;4.40;98.90;;;;;;4226042;28;20546;-88
2022/03/25 03:14:43;;;;;;;36.90;18.98;;;4.70;98.90;;;;;;4251628;27;20049;-88
2022/03/25 03:16:45;;;;;;;34.13;18.00;;;4.30;99.00;;;;;;4236797;27;20107;-89
2022/03/25 03:18:47;;;;;;;35.78;17.55;;;4.00;98.80;;;;;;4243100;27;20058;-88
2022/03/25 03:20:48;;;;;;;34.75;18.05;;;4.20;98.80;;;;;;4231154;28;20056;-87
2022/03/25 03:22:49;;;;;;;33.78;17.88;;;4.90;99.00;;;;;;4226278;28;20048;-88
2022/03/25 03:24:50;;;;;;;33.50;17.33;;;3.90;98.90;;;;;;4235472;27;20039;-87
2022/03/25 03:26:52;;;;;;;35.15;17.48;;;4.10;98.80;;;;;;4237442;27;20051;-89
2022/03/25 03:28:53;;;;;;;36.22;17.65;;;4.70;99.30;;;;;;4238849;27;20487;-88
2022/03/25 03:30:55;;;;;;;33.58;17.77;;;3.80;99.00;;;;;;4218811;28;20063;-88
2022/03/25 03:32:58;;;;;;;36.90;18.95;;;3.80;98.90;;;;;;4253375;27;20039;-88
2022/03/25 03:34:58;;;;;;;36.65;18.08;;;4.50;99.20;;;;;;4259879;27;20479;-87
2022/03/25 03:37:00;;;;;;;33.35;16.88;;;3.70;99.00;;;;;;4239987;27;20239;-88
2022/03/25 03:39:02;;;;;;;37.13;19.27;;;4.10;99.10;;;;;;4244039;27;20046;-87
2022/03/25 03:41:03;;;;;;;39.40;19.92;;;4.70;99.30;;;;;;4226314;28;20062;-88
2022/03/25 03:43:04;;;;;;;40.13;20.10;;;3.60;99.30;;;;;;4263774;27;20126;-88
2022/03/25 03:45:07;;;;;;;37.55;18.05;;;4.40;99.40;;;;;;4259186;27;20046;-88
2022/03/25 03:47:10;;;;;;;37.90;17.63;;;3.60;99.20;;;;;;4243166;27;20035;-88
2022/03/25 03:49:11;;;;;;;40.92;19.38;;;4.00;99.30;;;;;;4245452;27;20111;-88
2022/03/25 03:51:13;;;;;;;43.90;20.27;;;3.60;99.20;;;;;;4254087;27;20035;-88
2022/03/25 03:53:15;;;;;;;47.20;19.75;;;4.30;99.40;;;;;;4225579;28;20077;-88
2022/03/25 03:55:16;;;;;;;39.20;19.67;;;4.40;99.50;;;;;;4241117;27;20046;-89
2022/03/25 03:57:17;;;;;;;37.05;18.80;;;4.40;99.50;;;;;;4258190;27;20052;-87
2022/03/25 03:59:19;;;;;;;37.92;18.77;;;4.10;99.40;;;;;;4239756;27;20118;-88
2022/03/25 04:01:21;;;;;;;40.55;18.92;;;4.70;99.70;;;;;;4235580;27;20168;-88
2022/03/25 04:03:23;;;;;;;38.38;18.48;;;3.30;99.40;;;;;;4262539;27;20394;-87
2022/03/25 04:05:23;;;;;;;32.83;16.75;;;3.70;99.50;;;;;;4262210;27;20038;-87
2022/03/25 04:07:25;;;;;;;37.00;19.30;;;3.70;99.40;;;;;;4260832;27;20049;-88
2022/03/25 04:09:26;;;;;;;36.05;17.73;;;3.50;99.60;;;;;;4227245;28;20100;-87
2022/03/25 04:11:28;;;;;;;38.08;18.40;;;3.40;99.30;;;;;;4262356;27;20038;-88
2022/03/25 04:13:29;;;;;;;39.30;19.20;;;3.50;99.40;;;;;;4257465;27;20070;-88
2022/03/25 04:15:30;;;;;;;34.08;17.80;;;3.40;99.50;;;;;;4218200;28;20051;-88
2022/03/25 04:17:32;;;;;;;31.95;15.65;;;3.40;99.40;;;;;;4241465;27;20071;-88
2022/03/25 04:19:33;;;;;;;32.42;16.02;;;3.40;99.40;;;;;;4238546;27;20044;-88
2022/03/25 04:21:34;;;;;;;32.92;16.83;;;3.40;99.40;;;;;;4250781;27;20059;-88
2022/03/25 04:23:36;;;;;;;34.20;17.02;;;3.70;99.70;;;;;;4250435;27;20043;-87
2022/03/25 04:25:37;;;;;;;35.47;15.32;;;4.20;99.80;;;;;;4222771;28;20054;-87
2022/03/25 04:27:54;;;;;;;40.00;16.73;;;3.30;99.40;;;;;;4230831;28;20553;-87
2022/03/25 04:29:55;;;;;;;35.47;18.58;;;3.30;99.60;;;;;;4218967;28;20506;-87
2022/03/25 04:31:57;;;;;;;33.67;16.73;;;3.20;99.50;;;;;;4254145;27;20039;-87
2022/03/25 04:33:57;;;;;;;30.13;16.95;;;3.90;99.60;;;;;;4253584;27;20035;-87
2022/03/25 04:35:58;;;;;;;35.20;17.80;;;3.20;99.50;;;;;;4239582;27;20039;-87
2022/03/25 04:38:00;;;;;;;34.63;16.10;;;3.90;99.70;;;;;;4236705;27;20101;-88
2022/03/25 04:40:03;;;;;;;35.65;17.60;;;3.90;99.50;;;;;;4245227;27;20483;-87
2022/03/25 04:42:04;;;;;;;37.05;17.85;;;3.10;99.40;;;;;;4249768;27;20106;-88
2022/03/25 04:44:05;;;;;;;38.95;17.70;;;3.00;99.60;;;;;;4238206;27;20089;-88
2022/03/25 04:46:08;;;;;;;38.10;19.02;;;3.40;99.70;;;;;;4260102;27;20045;-87
2022/03/25 04:48:10;;;;;;;37.45;18.55;;;3.70;99.70;;;;;;4236267;27;20040;-87
2022/03/25 04:50:12;;;;;;;38.33;17.83;;;3.10;99.70;;;;;;4252737;27;20065;-87
2022/03/25 04:52:15;;;;;;;39.20;17.67;;;4.20;99.90;;;;;;4234947;27;20435;-87
2022/03/25 04:54:15;;;;;;;41.15;19.65;;;3.60;99.70;;;;;;4262107;27;20082;-88
2022/03/25 04:56:18;;;;;;;38.03;18.95;;;3.00;99.70;;;;;;4238506;27;20047;-88
2022/03/25 04:58:19;;;;;;;38.58;18.10;;;3.20;99.70;;;;;;4261104;27;20053;-88
2022/03/25 05:00:22;;;;;;;41.78;18.63;;;3.40;99.80;;;;;;4247163;27;20039;-88
2022/03/25 05:02:23;;;;;;;40.83;19.35;;;3.20;99.60;;;;;;4255110;27;20070;-88
2022/03/25 05:04:25;;;;;;;35.95;17.67;;;3.00;99.70;;;;;;4243095;27;20043;-88
2022/03/25 05:06:26;;;;;;;41.22;19.05;;;4.00;99.90;;;;;;4252817;27;20092;-87
2022/03/25 05:08:27;;;;;;;40.67;18.73;;;3.30;99.80;;;;;;4234174;27;20082;-87
2022/03/25 05:10:28;;;;;;;37.35;17.55;;;4.00;99.90;;;;;;4224323;28;20040;-88
2022/03/25 05:12:30;;;;;;;38.58;18.48;;;3.00;99.90;;;;;;4243759;27;20508;-88
2022/03/25 05:14:31;;;;;;;47.10;20.23;;;3.20;99.90;;;;;;4244857;27;20051;-87
2022/03/25 05:16:32;;;;;;;39.10;18.58;;;3.30;99.70;;;;;;4227050;28;20111;-87
2022/03/25 05:18:33;;;;;;;41.15;18.92;;;3.20;99.70;;;;;;4227635;28;20055;-88
2022/03/25 05:20:33;;;;;;;40.53;17.73;;;3.90;99.90;;;;;;4243423;27;20054;-88
2022/03/25 05:22:34;;;;;;;37.22;19.45;;;2.90;99.90;;;;;;4239992;27;20050;-89
2022/03/25 05:24:35;;;;;;;35.03;18.33;;;3.00;99.90;;;;;;4253053;27;20047;-89
2022/03/25 05:26:37;;;;;;;41.70;19.17;;;3.10;99.80;;;;;;4250852;27;20114;-88
2022/03/25 05:28:39;;;;;;;49.95;20.80;;;2.90;99.80;;;;;;4241293;28;20477;-88
2022/03/25 05:30:40;;;;;;;41.83;19.55;;;3.20;99.90;;;;;;4246815;28;20043;-87
2022/03/25 05:32:42;;;;;;;41.15;19.73;;;2.80;99.90;;;;;;4256680;27;20531;-87
2022/03/25 05:34:43;;;;;;;40.15;19.70;;;3.90;99.90;;;;;;4262661;27;20121;-87
2022/03/25 05:36:43;;;;;;;40.00;17.98;;;2.90;99.90;;;;;;4230309;28;20043;-87
2022/03/25 05:38:44;;;;;;;43.92;19.58;;;2.80;99.90;;;;;;4262008;27;20053;-87
2022/03/25 05:40:45;;;;;;;45.80;19.50;;;3.20;99.90;;;;;;4255947;27;20046;-87
2022/03/25 05:42:47;;;;;;;41.10;19.60;;;3.60;99.90;;;;;;4240767;28;20063;-87
2022/03/25 05:44:50;;;;;;;44.20;19.23;;;4.10;99.90;;;;;;4240789;28;20047;-88
2022/03/25 05:46:51;;;;;;;45.63;19.50;;;3.00;99.90;;;;;;4234316;28;20051;-87
2022/03/25 05:48:52;;;;;;;43.95;19.50;;;3.70;99.90;;;;;;4254649;27;20567;-87
2022/03/25 05:50:55;;;;;;;47.63;20.48;;;2.30;99.90;;;;;;4236714;27;20043;-88
2022/03/25 05:52:56;;;;;;;41.45;19.13;;;3.00;99.90;;;;;;4232109;28;20048;-87
2022/03/25 05:54:56;;;;;;;47.40;21.63;;;4.20;99.90;;;;;;4256166;27;20107;-88
2022/03/25 05:56:57;;;;;;;47.15;20.85;;;3.10;99.90;;;;;;4263192;27;20039;-88
2022/03/25 05:58:58;;;;;;;45.58;20.52;;;3.30;99.90;;;;;;4256437;27;20031;-88
2022/03/25 06:00:59;;;;;;;43.20;20.10;;;3.90;99.90;;;;;;4240826;27;20376;-88
2022/03/25 06:03:02;;;;;;;47.53;20.50;;;3.90;99.90;;;;;;4221648;28;20418;-87
2022/03/25 06:05:03;;;;;;;41.55;20.42;;;3.30;99.90;;;;;;4221184;28;20103;-87
2022/03/25 06:07:04;;;;;;;44.45;21.38;;;3.20;99.90;;;;;;4254529;27;20521;-87
2022/03/25 06:09:05;;;;;;;47.40;20.10;;;3.30;99.90;;;;;;4256370;27;20042;-88
2022/03/25 06:11:06;;;;;;;47.63;20.85;;;2.90;99.90;;;;;;4263460;27;20042;-88
2022/03/25 06:13:08;;;;;;;47.95;22.00;;;3.30;99.90;;;;;;4257711;27;20441;-88
2022/03/25 06:15:09;;;;;;;46.53;21.30;;;3.30;99.90;;;;;;4238945;27;20423;-88
2022/03/25 06:17:10;;;;;;;45.70;21.45;;;3.30;99.90;;;;;;4261350;27;20038;-87
2022/03/25 06:19:12;;;;;;;45.65;21.65;;;3.60;99.90;;;;;;4232819;28;20067;-88
2022/03/25 06:21:13;;;;;;;39.72;20.00;;;3.40;99.90;;;;;;4257712;27;20063;-88
2022/03/25 06:23:14;;;;;;;47.78;21.17;;;4.30;99.90;;;;;;4236501;27;20050;-88
2022/03/25 06:25:16;;;;;;;42.65;20.08;;;3.80;99.90;;;;;;4237285;27;20054;-88
2022/03/25 06:27:16;;;;;;;45.25;22.65;;;3.50;99.90;;;;;;4261393;27;20038;-87
2022/03/25 06:29:17;;;;;;;40.75;19.50;;;4.60;99.90;;;;;;4221716;28;20052;-87
2022/03/25 06:31:18;;;;;;;47.72;22.13;;;4.70;99.90;;;;;;4254129;27;20049;-87
2022/03/25 06:33:20;;;;;;;51.78;23.13;;;4.50;99.90;;;;;;4234344;28;20043;-87
2022/03/25 06:35:21;;;;;;;44.05;21.23;;;4.50;99.90;;;;;;4221045;28;20055;-87
2022/03/25 06:37:22;;;;;;;44.90;20.65;;;4.40;99.90;;;;;;4219244;28;20052;-87
2022/03/25 06:39:24;;;;;;;52.20;22.58;;;3.80;99.90;;;;;;4254419;27;20586;-88
2022/03/25 06:41:25;;;;;;;50.55;23.58;;;4.30;99.90;;;;;;4245829;27;20437;-88
2022/03/25 06:43:27;;;;;;;48.90;21.83;;;4.80;99.90;;;;;;4255274;27;20114;-88
2022/03/25 06:45:28;;;;;;;49.42;23.77;;;4.70;99.90;;;;;;4255291;27;20480;-84
2022/03/25 06:47:29;;;;;;;66.05;29.27;;;4.30;99.90;;;;;;4235111;27;20043;-86
2022/03/25 06:49:30;;;;;;;69.72;32.72;;;5.30;99.90;;;;;;4230710;28;20040;-85
2022/03/25 06:51:31;;;;;;;79.15;36.25;;;4.30;99.90;;;;;;4234333;28;20043;-86
2022/03/25 06:53:32;;;;;;;78.60;36.17;;;4.40;99.90;;;;;;4262970;27;20043;-86
2022/03/25 06:55:33;;;;;;;74.95;33.88;;;4.50;99.90;;;;;;4261615;27;20070;-86
2022/03/25 06:57:35;;;;;;;79.78;33.35;;;4.70;99.90;;;;;;4233658;28;20473;-86
2022/03/25 06:59:36;;;;;;;72.28;30.55;;;4.80;99.90;;;;;;4243530;27;20035;-85
2022/03/25 07:01:37;;;;;;;63.75;28.83;;;4.90;99.90;;;;;;4255873;27;20069;-87
2022/03/25 07:03:38;;;;;;;56.05;25.80;;;5.10;99.90;;;;;;4266034;27;20402;-87
2022/03/25 07:05:39;;;;;;;58.80;27.10;;;5.20;99.90;;;;;;4266915;27;20042;-86
2022/03/25 07:07:41;;;;;;;53.30;25.73;;;5.50;99.90;;;;;;4259692;27;20092;-87
2022/03/25 07:09:44;;;;;;;44.65;21.20;;;6.30;99.90;;;;;;4264696;27;20403;-86
2022/03/25 07:11:45;;;;;;;44.85;20.73;;;5.60;99.90;;;;;;4249779;27;20047;-85
2022/03/25 07:13:46;;;;;;;44.38;20.77;;;5.70;99.90;;;;;;4252798;27;20047;-85
2022/03/25 07:15:46;;;;;;;45.20;20.48;;;5.90;99.90;;;;;;4272694;27;20043;-86
2022/03/25 07:17:47;;;;;;;41.10;21.08;;;6.70;99.90;;;;;;4263327;27;20051;-87
2022/03/25 07:19:48;;;;;;;40.97;20.85;;;6.60;99.90;;;;;;4265766;27;20406;-87
2022/03/25 07:21:50;;;;;;;46.08;21.80;;;7.20;99.90;;;;;;4234405;28;20052;-88
2022/03/25 07:23:51;;;;;;;40.83;20.05;;;6.70;99.90;;;;;;4247478;27;20058;-88
2022/03/25 07:25:51;;;;;;;44.53;19.00;;;7.60;99.90;;;;;;4237875;27;20043;-88
2022/03/25 07:27:52;;;;;;;37.72;19.63;;;7.50;99.90;;;;;;4220376;28;20048;-88
2022/03/25 07:29:54;;;;;;;41.25;18.48;;;7.10;99.90;;;;;;4227793;28;20082;-88
2022/03/25 07:31:56;;;;;;;39.15;20.33;;;7.00;99.90;;;;;;4244632;27;20043;-87
2022/03/25 07:33:57;;;;;;;43.88;20.75;;;8.20;99.90;;;;;;4242049;27;20043;-87
2022/03/25 07:36:00;;;;;;;38.97;18.85;;;8.00;99.90;;;;;;4245707;27;20499;-87
2022/03/25 07:38:00;;;;;;;37.80;19.27;;;7.90;99.90;;;;;;4247355;27;20043;-87
2022/03/25 07:40:03;;;;;;;38.60;19.80;;;7.80;99.90;;;;;;4248160;27;20059;-89
2022/03/25 07:42:04;;;;;;;38.55;19.38;;;8.00;99.90;;;;;;4226977;28;20078;-89
2022/03/25 07:44:05;;;;;;;40.20;19.45;;;8.20;99.70;;;;;;4237594;27;20047;-89
2022/03/25 07:46:06;;;;;;;40.50;20.25;;;8.50;99.50;;;;;;4242709;27;20414;-89
2022/03/25 07:48:07;;;;;;;35.72;18.42;;;8.80;99.20;;;;;;4235060;27;20040;-89
2022/03/25 07:50:13;;;;;;;41.83;19.55;;;9.10;99.30;;;;;;4218249;28;20075;-89
2022/03/25 07:52:15;;;;;;;37.85;20.27;;;;;;;;;;4230166;28;20051;-89
2022/03/25 07:54:17;;;;;;;37.30;17.95;;;;;;;;;;4247495;27;20046;-89
2022/03/25 07:56:18;;;;;;;33.05;16.17;;;;;;;;;;4231305;27;20582;-88
2022/03/25 07:58:19;;;;;;;33.45;15.43;;;;;;;;;;4226850;28;20079;-88
2022/03/25 08:00:20;;;;;;;35.35;16.35;;;;;;;;;;4241776;27;20514;-90
2022/03/25 08:02:22;;;;;;;30.83;14.68;;;;;;;;;;4217645;28;20672;-90
2022/03/25 08:04:24;;;;;;;32.50;16.23;;;;;;;;;;4234970;27;20145;-89
2022/03/25 08:06:25;;;;;;;30.33;14.60;;;;;;;;;;4248482;27;20047;-89
2022/03/25 08:08:26;;;;;;;29.88;15.30;;;;;;;;;;4232296;28;20036;-89
2022/03/25 08:10:28;;;;;;;28.45;14.68;;;;;;;;;;4231689;28;20044;-89
2022/03/25 08:12:29;;;;;;;27.98;14.77;;;;;;;;;;4212727;28;20055;-89
2022/03/25 08:14:31;;;;;;;27.95;15.25;;;;;;;;;;4223972;28;20051;-89
2022/03/25 08:16:32;;;;;;;27.27;14.00;;;;;;;;;;4230760;28;20095;-88
2022/03/25 08:18:34;;;;;;;29.42;14.38;;;;;;;;;;4213926;28;20055;-90
2022/03/25 08:20:37;;;;;;;29.38;13.63;;;;;;;;;;4235600;27;20070;-89
2022/03/25 08:22:39;;;;;;;27.52;13.82;;;;;;;;;;4230175;28;20047;-89
2022/03/25 08:29:22;;;;;;;23.05;13.25;;;;;;;;;;4247506;27;20073;-90
2022/03/25 08:31:24;;;;;;;27.95;13.98;;;;;;;;;;4266025;27;20427;-88
2022/03/25 08:33:25;;;;;;;24.48;13.65;;;;;;;;;;4238800;27;20411;-87
2022/03/25 08:35:27;;;;;;;25.10;12.90;;;;;;;;;;4230011;27;20047;-87
2022/03/25 08:37:29;;;;;;;26.00;12.98;;;;;;;;;;4255363;27;20042;-87
2022/03/25 08:39:31;;;;;;;24.83;12.82;;;;;;;;;;4265011;27;20380;-85
2022/03/25 08:41:32;;;;;;;23.23;11.88;;;;;;;;;;4265731;27;20545;-85
2022/03/25 08:43:33;;;;;;;24.00;12.57;;;;;;;;;;4246476;27;20031;-83
2022/03/25 08:45:34;;;;;;;25.35;12.48;;;;;;;;;;4265668;27;20035;-86
2022/03/25 08:47:35;;;;;;;25.77;13.30;;;;;;;;;;4265265;27;20039;-85
2022/03/25 08:49:37;;;;;;;25.13;13.48;;;;;;;;;;4239464;27;20412;-86
2022/03/25 08:51:38;;;;;;;25.85;13.23;;;;;;;;;;4236879;27;20046;-85
2022/03/25 08:53:40;;;;;;;22.65;12.15;;;;;;;;;;4247804;27;20039;-86
2022/03/25 08:55:41;;;;;;;23.27;13.55;;;;;;;;;;4251538;27;20069;-86
2022/03/25 08:57:43;;;;;;;26.00;13.45;;;;;;;;;;4252217;27;20043;-85
2022/03/25 08:59:44;;;;;;;25.75;13.27;;;;;;;;;;4236551;27;20082;-86
2022/03/25 09:01:45;;;;;;;25.27;13.15;;;;;;;;;;4264760;27;20047;-85
2022/03/25 09:03:46;;;;;;;23.27;12.82;;;;;;;;;;4246665;27;20050;-86
2022/03/25 09:05:48;;;;;;;21.88;12.55;;;;;;;;;;4264983;27;20035;-87
2022/03/25 09:07:49;;;;;;;22.80;12.32;;;;;;;;;;4262051;27;20173;-85
2022/03/25 09:09:51;;;;;;;25.52;12.15;;;;;;;;;;4263231;27;20047;-86
2022/03/25 09:11:53;;;;;;;22.88;11.40;;;;;;;;;;4249755;27;20138;-85
2022/03/25 09:13:55;;;;;;;24.88;12.25;;;;;;;;;;4231951;28;20532;-85
2022/03/25 09:15:56;;;;;;;23.23;12.40;;;;;;;;;;4242994;27;20058;-85
2022/03/25 09:17:57;;;;;;;22.85;12.23;;;;;;;;;;4258673;27;20040;-85
2022/03/25 09:19:59;;;;;;;22.65;10.85;;;;;;;;;;4246257;27;20045;-84
2022/03/25 09:22:01;;;;;;;22.75;12.10;;;;;;;;;;4260642;27;20050;-85
2022/03/25 09:24:03;;;;;;;23.33;13.27;;;;;;;;;;4251160;27;20054;-86
2022/03/25 09:26:04;;;;;;;24.58;11.80;;;;;;;;;;4249278;27;20505;-85
2022/03/25 09:28:05;;;;;;;23.23;12.55;;;;;;;;;;4248803;28;20068;-85
2022/03/25 09:30:07;;;;;;;21.73;12.68;;;;;;;;;;4247934;27;20130;-86
2022/03/25 09:32:08;;;;;;;29.30;12.98;;;;;;;;;;4248222;27;20043;-86
2022/03/25 09:36:29;;;;;;;20.75;10.88;;;;;;;;;;4239824;28;20044;-85
2022/03/25 09:38:31;;;;;;;22.42;11.30;;;;;;;;;;4241041;28;20061;-86
2022/03/25 09:40:32;;;;;;;22.98;10.50;;;;;;;;;;4256155;27;20047;-86
2022/03/25 09:42:34;;;;;;;25.25;11.15;;;;;;;;;;4233991;28;20055;-86
2022/03/25 09:44:39;;;;;;;21.33;10.88;;;;;;;;;;4234216;28;20044;-85
2022/03/25 09:46:42;;;;;;;20.98;11.50;;;;;;;;;;4252012;27;20486;-85
2022/03/25 09:48:43;;;;;;;21.85;11.65;;;;;;;;;;4250536;27;20436;-84
2022/03/25 09:50:44;;;;;;;19.77;10.38;;;;;;;;;;4256820;27;20035;-85
2022/03/25 09:52:45;;;;;;;23.35;12.18;;;;;;;;;;4242018;28;20091;-86
2022/03/25 09:54:47;;;;;;;24.38;11.80;;;;;;;;;;4251934;27;20054;-85
2022/03/25 09:56:48;;;;;;;20.80;11.65;;;;;;;;;;4251046;27;20070;-85
2022/03/25 09:58:49;;;;;;;19.60;9.63;;;;;;;;;;4250875;27;20039;-85
2022/03/25 10:00:51;;;;;;;20.73;11.98;;;;;;;;;;4258417;27;20043;-85
2022/03/25 10:02:52;;;;;;;22.10;10.85;;;;;;;;;;4259600;27;20089;-85
2022/03/25 10:04:55;;;;;;;21.33;10.80;;;;;;;;;;4256120;27;20501;-85
2022/03/25 10:06:56;;;;;;;21.85;11.82;;;;;;;;;;4237119;28;20051;-85
2022/03/25 10:08:58;;;;;;;23.05;11.70;;;;;;;;;;4254127;27;20039;-86
2022/03/25 10:11:18;;;;;;;22.77;10.30;;;;;;;;;;4249667;27;20039;-86
2022/03/25 10:13:20;;;;;;;25.52;11.52;;;;;;;;;;4251200;27;20035;-86
2022/03/25 10:15:22;;;;;;;24.42;11.27;;;;;;;;;;4234540;28;20069;-86
2022/03/25 10:17:23;;;;;;;21.17;11.27;;;;;;;;;;4242370;28;20062;-85
2022/03/25 10:19:25;;;;;;;22.20;11.10;;;;;;;;;;4251789;27;20042;-85
2022/03/25 10:21:28;;;;;;;24.13;12.20;;;;;;;;;;4251139;27;20427;-85
2022/03/25 10:23:31;;;;;;;19.90;11.20;;;;;;;;;;4249263;27;20039;-85
2022/03/25 10:25:43;;;;;;;23.67;11.52;;;;;;;;;;4247483;27;20051;-85
2022/03/25 10:27:44;;;;;;;24.27;11.25;;;;;;;;;;4251805;27;20114;-84
2022/03/25 10:29:46;;;;;;;19.27;10.60;;;;;;;;;;4259291;27;20386;-85
2022/03/25 10:32:25;;;;;;;22.27;10.57;;;;;;;;;;4255112;27;20054;-85
2022/03/25 10:34:26;;;;;;;20.15;10.35;;;;;;;;;;4211126;28;20113;-85
2022/03/25 10:36:28;;;;;;;18.67;10.80;;;;;;;;;;4220661;27;20051;-85
2022/03/25 10:38:57;;;;;;;23.05;11.60;;;;;;;;;;4235579;27;20047;-85
2022/03/25 10:40:59;;;;;;;23.40;12.05;;;;;;;;;;4235937;27;20138;-86
2022/03/25 10:43:06;;;;;;;21.05;10.98;;;;;;;;;;4253940;27;20038;-86
2022/03/25 10:45:36;;;;;;;23.83;10.77;;;;;;;;;;4254873;27;20062;-86
2022/03/25 10:47:38;;;;;;;24.08;11.93;;;;;;;;;;4260286;27;20062;-85
2022/03/25 10:49:43;;;;;;;31.75;12.93;;;;;;;;;;4257844;27;20066;-86
2022/03/25 10:51:59;;;;;;;28.63;12.10;;;;;;;;;;4262497;27;20070;-86
2022/03/25 10:54:01;;;;;;;24.75;12.50;;;;;;;;;;4246291;27;20050;-86
2022/03/25 10:56:06;;;;;;;24.75;11.98;;;;;;;;;;4260535;27;20103;-86